Time;durP1;ratioP1;P1;durP2;ratioP2;P2;SDS_P1;SDS_P2;PMS_P1;PMS_P2;Temp;Humidity;BMP_temperature;BMP_pressure;BME280_temperature;BME280_humidity;BME280_pressure;Samples;Min_cycle;Max_cycle;Signal;HPM_P1;HPM_P2
2021/09/08 00:01:07;;;;;;;13.30;9.93;;;21.90;95.20;;;;;;4996728;28;20287;-62
2021/09/08 00:03:32;;;;;;;10.93;9.83;;;21.90;95.10;;;;;;4999710;28;20196;-62
2021/09/08 00:05:58;;;;;;;10.63;9.53;;;21.90;95.20;;;;;;4997638;28;20236;-62
2021/09/08 00:08:25;;;;;;;11.40;9.80;;;21.90;95.10;;;;;;4995704;28;20569;-62
2021/09/08 00:10:51;;;;;;;14.63;10.97;;;21.90;95.20;;;;;;4992909;28;20189;-62
2021/09/08 00:13:17;;;;;;;11.17;9.37;;;21.80;95.30;;;;;;4996475;28;20918;-62
2021/09/08 00:15:43;;;;;;;12.83;9.70;;;21.90;95.40;;;;;;4996833;28;20464;-62
2021/09/08 00:18:09;;;;;;;9.97;8.97;;;21.90;95.30;;;;;;4992633;28;20205;-62
2021/09/08 00:20:35;;;;;;;11.63;9.50;;;21.90;95.20;;;;;;4999334;28;20351;-62
2021/09/08 00:23:00;;;;;;;12.70;9.60;;;22.00;95.10;;;;;;4994151;28;20206;-62
2021/09/08 00:25:26;;;;;;;11.20;9.10;;;21.80;95.20;;;;;;4998754;28;20221;-62
2021/09/08 00:27:51;;;;;;;13.13;9.90;;;21.90;95.20;;;;;;4997406;28;20189;-62
2021/09/08 00:30:17;;;;;;;11.23;9.50;;;21.80;95.20;;;;;;4997599;28;20193;-62
2021/09/08 00:32:43;;;;;;;10.57;9.40;;;21.80;95.40;;;;;;4996868;28;20272;-62
2021/09/08 00:35:09;;;;;;;10.90;9.77;;;21.60;95.70;;;;;;4994969;28;20455;-62
2021/09/08 00:37:39;;;;;;;12.07;10.43;;;21.70;95.60;;;;;;4996478;28;20344;-62
2021/09/08 00:40:07;;;;;;;10.50;8.67;;;21.70;95.60;;;;;;4997989;28;20937;-62
2021/09/08 00:42:33;;;;;;;11.03;9.93;;;21.70;95.90;;;;;;4997143;28;20901;-62
2021/09/08 00:44:58;;;;;;;11.53;10.37;;;21.60;95.90;;;;;;5000165;28;20833;-62
2021/09/08 00:47:24;;;;;;;11.40;10.20;;;21.60;96.00;;;;;;4993280;28;20645;-62
2021/09/08 00:49:50;;;;;;;14.27;11.93;;;21.50;96.30;;;;;;4996683;28;20193;-62
2021/09/08 00:52:17;;;;;;;12.23;11.00;;;21.60;96.40;;;;;;4997403;28;20216;-62
2021/09/08 00:54:48;;;;;;;10.83;9.53;;;21.50;96.40;;;;;;4993909;28;20447;-62
2021/09/08 00:57:15;;;;;;;11.30;10.20;;;21.50;96.50;;;;;;4998166;28;20452;-62
2021/09/08 00:59:42;;;;;;;14.00;10.10;;;21.50;96.60;;;;;;4999418;28;20439;-62
2021/09/08 01:02:08;;;;;;;11.43;9.23;;;21.50;96.70;;;;;;4999971;28;20704;-62
2021/09/08 01:04:33;;;;;;;11.17;9.63;;;21.50;96.80;;;;;;4996064;28;20555;-62
2021/09/08 01:07:01;;;;;;;14.33;11.13;;;21.50;96.90;;;;;;4996110;28;20223;-62
2021/09/08 01:09:28;;;;;;;16.60;10.63;;;21.30;96.90;;;;;;5001322;28;20194;-61
2021/09/08 01:11:54;;;;;;;15.40;10.70;;;21.30;97.00;;;;;;4999649;28;20455;-62
2021/09/08 01:14:20;;;;;;;12.17;10.70;;;21.30;97.10;;;;;;5000210;28;20448;-62
2021/09/08 01:16:50;;;;;;;19.60;10.70;;;21.20;97.30;;;;;;5000363;28;20245;-62
2021/09/08 01:19:16;;;;;;;12.67;11.03;;;21.20;97.50;;;;;;4998257;28;20448;-62
2021/09/08 01:21:41;;;;;;;15.23;11.70;;;21.10;97.60;;;;;;5005063;28;21020;-62
2021/09/08 01:24:08;;;;;;;11.90;10.60;;;21.10;97.70;;;;;;4999230;28;20563;-62
2021/09/08 01:26:38;;;;;;;13.80;11.33;;;21.10;98.00;;;;;;4998152;28;20218;-62
2021/09/08 01:29:05;;;;;;;14.10;10.70;;;21.10;98.10;;;;;;5002591;28;20443;-62
2021/09/08 01:31:30;;;;;;;16.60;12.30;;;21.00;98.30;;;;;;4998463;28;20450;-62
2021/09/08 01:33:56;;;;;;;12.17;10.87;;;21.00;98.60;;;;;;5003641;28;20833;-62
2021/09/08 01:36:21;;;;;;;13.10;10.87;;;21.00;98.40;;;;;;4998554;28;20683;-62
2021/09/08 01:38:47;;;;;;;12.87;10.20;;;21.00;98.60;;;;;;4999173;28;20205;-62
2021/09/08 01:41:13;;;;;;;13.00;11.23;;;21.00;98.70;;;;;;4999673;28;20371;-62
2021/09/08 01:43:38;;;;;;;21.73;11.40;;;21.10;98.80;;;;;;4997792;28;20930;-62
2021/09/08 01:46:04;;;;;;;11.47;10.20;;;21.10;98.60;;;;;;5000147;28;20209;-62
2021/09/08 01:48:30;;;;;;;13.73;10.70;;;20.90;99.00;;;;;;4997595;28;20185;-62
2021/09/08 01:50:56;;;;;;;12.23;11.00;;;20.90;99.00;;;;;;4997680;28;20189;-62
2021/09/08 01:53:23;;;;;;;12.57;11.27;;;20.90;98.80;;;;;;4997938;28;20300;-62
2021/09/08 01:55:50;;;;;;;12.40;11.10;;;20.90;98.70;;;;;;4999426;28;21550;-62
2021/09/08 01:58:16;;;;;;;13.13;10.90;;;20.90;98.80;;;;;;4997793;28;20462;-62
2021/09/08 02:00:43;;;;;;;12.97;10.80;;;20.80;98.90;;;;;;4998452;28;20858;-62
2021/09/08 02:03:09;;;;;;;13.83;11.47;;;20.80;99.00;;;;;;5002293;28;20879;-62
2021/09/08 02:05:34;;;;;;;13.60;11.53;;;20.70;99.30;;;;;;4998792;28;20994;-62
2021/09/08 02:08:00;;;;;;;13.10;11.20;;;20.70;99.40;;;;;;4997070;28;20292;-62
2021/09/08 02:10:26;;;;;;;14.77;11.80;;;20.60;99.60;;;;;;4997687;28;20443;-62
2021/09/08 02:12:51;;;;;;;14.10;11.43;;;20.40;99.90;;;;;;4997905;28;20193;-62
2021/09/08 02:15:17;;;;;;;12.00;10.80;;;20.50;99.90;;;;;;4999695;28;20730;-62
2021/09/08 02:17:43;;;;;;;12.27;10.97;;;20.50;99.90;;;;;;4997459;28;20245;-62
2021/09/08 02:20:09;;;;;;;11.67;10.30;;;20.60;99.90;;;;;;4999997;28;20210;-62
2021/09/08 02:22:35;;;;;;;12.33;11.03;;;20.50;99.90;;;;;;4999033;28;20208;-62
2021/09/08 02:25:01;;;;;;;13.70;11.20;;;20.30;99.90;;;;;;4995397;28;20476;-62
2021/09/08 02:27:27;;;;;;;12.43;11.17;;;20.30;99.90;;;;;;4995167;28;20209;-62
2021/09/08 02:29:53;;;;;;;13.87;12.10;;;20.40;99.90;;;;;;4998439;28;20456;-62
2021/09/08 02:32:19;;;;;;;11.97;10.80;;;20.50;99.90;;;;;;4995947;28;20455;-61
2021/09/08 02:34:45;;;;;;;15.00;12.57;;;20.40;99.90;;;;;;4996437;28;20436;-62
2021/09/08 02:37:11;;;;;;;14.33;12.03;;;20.40;99.90;;;;;;4997387;28;20233;-62
2021/09/08 02:39:40;;;;;;;11.90;10.70;;;20.40;99.90;;;;;;5000345;28;20440;-62
2021/09/08 02:42:07;;;;;;;13.97;11.13;;;20.30;99.90;;;;;;4997978;28;20451;-62
2021/09/08 02:44:33;;;;;;;13.33;11.80;;;20.40;99.90;;;;;;4999468;28;21026;-62
2021/09/08 02:46:59;;;;;;;12.97;11.77;;;20.40;99.90;;;;;;4998320;28;20476;-62
2021/09/08 02:49:24;;;;;;;15.27;12.17;;;20.40;99.90;;;;;;4998886;28;20320;-62
2021/09/08 02:51:50;;;;;;;12.83;11.53;;;20.40;99.90;;;;;;4998439;28;20185;-62
2021/09/08 02:54:15;;;;;;;15.43;10.80;;;20.30;99.90;;;;;;4999053;28;20325;-62
2021/09/08 02:56:41;;;;;;;12.50;11.20;;;20.20;99.90;;;;;;4998248;28;20664;-62
2021/09/08 02:59:07;;;;;;;13.00;10.90;;;20.20;99.90;;;;;;4997332;28;20251;-62
2021/09/08 03:01:32;;;;;;;12.47;10.00;;;20.20;99.90;;;;;;4997221;28;20207;-62
2021/09/08 03:03:58;;;;;;;13.73;10.77;;;20.30;99.90;;;;;;4998175;28;20193;-62
2021/09/08 03:06:23;;;;;;;13.50;11.90;;;20.20;99.90;;;;;;4993446;28;20319;-62
2021/09/08 03:08:49;;;;;;;12.60;11.30;;;20.10;99.90;;;;;;4997173;28;20196;-63
2021/09/08 03:11:15;;;;;;;12.77;11.30;;;20.10;99.90;;;;;;4998046;28;20178;-64
2021/09/08 03:13:40;;;;;;;11.70;10.50;;;20.10;99.90;;;;;;4998593;28;20271;-63
2021/09/08 03:16:06;;;;;;;12.37;11.07;;;20.10;99.90;;;;;;4997745;28;20221;-63
2021/09/08 03:18:31;;;;;;;14.20;11.73;;;20.20;99.90;;;;;;4996767;28;20767;-63
2021/09/08 03:20:57;;;;;;;12.13;10.87;;;20.20;99.90;;;;;;5000080;28;20316;-63
2021/09/08 03:23:23;;;;;;;13.10;11.80;;;20.10;99.90;;;;;;4998516;28;20181;-62
2021/09/08 03:25:48;;;;;;;14.33;11.87;;;20.20;99.90;;;;;;4995519;28;20225;-64
2021/09/08 03:28:14;;;;;;;12.03;10.27;;;20.20;99.90;;;;;;4997864;28;20181;-64
2021/09/08 03:30:40;;;;;;;13.33;11.70;;;20.20;99.90;;;;;;5001591;28;20185;-64
2021/09/08 03:33:06;;;;;;;17.43;12.70;;;20.10;99.90;;;;;;4996616;28;20452;-64
2021/09/08 03:35:31;;;;;;;13.53;12.10;;;20.00;99.90;;;;;;4997167;28;20205;-64
2021/09/08 03:37:57;;;;;;;16.03;12.40;;;19.90;99.90;;;;;;4996933;28;20553;-64
2021/09/08 03:40:23;;;;;;;14.30;12.00;;;20.00;99.90;;;;;;4998235;28;20193;-63
2021/09/08 03:42:49;;;;;;;13.63;12.27;;;20.00;99.90;;;;;;4995239;28;20380;-63
2021/09/08 03:45:15;;;;;;;13.00;11.70;;;20.00;99.90;;;;;;4998890;28;20997;-63
2021/09/08 03:47:42;;;;;;;13.20;11.83;;;20.00;99.90;;;;;;4997760;28;20213;-63
2021/09/08 03:50:08;;;;;;;13.30;11.43;;;20.00;99.90;;;;;;4993077;28;20197;-63
2021/09/08 03:52:34;;;;;;;13.10;11.10;;;20.00;99.90;;;;;;4991904;28;20562;-63
2021/09/08 03:54:59;;;;;;;21.40;11.77;;;19.90;99.90;;;;;;4995848;28;20456;-64
2021/09/08 03:57:25;;;;;;;16.17;11.63;;;19.80;99.90;;;;;;4995711;28;20229;-64
2021/09/08 03:59:50;;;;;;;13.67;12.20;;;19.80;99.90;;;;;;4997159;28;20491;-64
2021/09/08 04:02:16;;;;;;;13.67;12.27;;;19.80;99.90;;;;;;4996805;28;20719;-63
2021/09/08 04:04:42;;;;;;;13.77;12.30;;;19.80;99.90;;;;;;4996248;28;20300;-64
2021/09/08 04:07:08;;;;;;;14.37;12.87;;;19.70;99.90;;;;;;4997582;28;20286;-64
2021/09/08 04:09:33;;;;;;;14.40;12.03;;;19.70;99.90;;;;;;5001574;28;20186;-64
2021/09/08 04:11:59;;;;;;;13.27;11.50;;;19.80;99.90;;;;;;4995901;28;20244;-64
2021/09/08 04:14:25;;;;;;;17.53;12.17;;;19.80;99.90;;;;;;4996618;28;20479;-62
2021/09/08 04:16:51;;;;;;;17.03;13.57;;;19.80;99.90;;;;;;4997103;28;20214;-64
2021/09/08 04:19:16;;;;;;;15.30;13.70;;;19.70;99.90;;;;;;4994850;28;20200;-64
2021/09/08 04:21:42;;;;;;;13.90;12.07;;;19.60;99.90;;;;;;4997483;28;20207;-64
2021/09/08 04:24:08;;;;;;;14.87;11.97;;;19.60;99.90;;;;;;4997955;28;20220;-64
2021/09/08 04:26:34;;;;;;;14.70;11.97;;;19.60;99.90;;;;;;4995710;28;20593;-64
2021/09/08 04:28:59;;;;;;;15.33;12.80;;;19.60;99.90;;;;;;4999705;28;20463;-64
2021/09/08 04:31:25;;;;;;;14.70;12.23;;;19.60;99.90;;;;;;4997951;28;20200;-64
2021/09/08 04:33:51;;;;;;;14.50;12.87;;;19.50;99.90;;;;;;4994825;28;20185;-62
2021/09/08 04:36:17;;;;;;;14.87;13.30;;;19.30;99.90;;;;;;5000462;28;20239;-62
2021/09/08 04:38:45;;;;;;;16.97;13.20;;;19.40;99.90;;;;;;4995324;28;20818;-62
2021/09/08 04:41:11;;;;;;;13.20;11.80;;;19.30;99.90;;;;;;5001095;28;20829;-62
2021/09/08 04:43:37;;;;;;;15.00;12.87;;;19.30;99.90;;;;;;4998299;28;20459;-62
2021/09/08 04:46:03;;;;;;;15.73;13.80;;;19.10;99.90;;;;;;5001907;28;20468;-63
2021/09/08 04:48:29;;;;;;;14.40;12.87;;;19.10;99.90;;;;;;5002677;28;20189;-64
2021/09/08 04:50:54;;;;;;;19.70;12.90;;;19.10;99.90;;;;;;4998073;28;20753;-64
2021/09/08 04:53:20;;;;;;;15.30;12.97;;;19.10;99.90;;;;;;5000793;28;20436;-64
2021/09/08 04:55:46;;;;;;;15.80;13.73;;;19.10;99.90;;;;;;4996254;28;20217;-64
2021/09/08 04:58:11;;;;;;;15.23;13.43;;;19.10;99.90;;;;;;4999045;28;20691;-62
2021/09/08 05:00:37;;;;;;;16.03;14.03;;;19.10;99.90;;;;;;5000537;28;20287;-64
2021/09/08 05:03:03;;;;;;;15.10;12.43;;;18.90;99.90;;;;;;5001280;28;20189;-64
2021/09/08 05:05:29;;;;;;;16.70;13.00;;;18.90;99.90;;;;;;5002082;28;20216;-64
2021/09/08 05:07:54;;;;;;;16.40;13.30;;;19.00;99.90;;;;;;4996553;28;20535;-64
2021/09/08 05:10:20;;;;;;;14.57;13.03;;;19.00;99.90;;;;;;4996152;28;20210;-63
2021/09/08 05:12:46;;;;;;;18.57;13.37;;;18.90;99.90;;;;;;4997646;28;20205;-64
2021/09/08 05:15:12;;;;;;;16.07;13.77;;;18.90;99.90;;;;;;4998856;28;20201;-64
2021/09/08 05:17:37;;;;;;;18.53;13.33;;;18.80;99.90;;;;;;5016770;28;20616;-64
2021/09/08 05:20:05;;;;;;;16.77;12.13;;;18.80;99.90;;;;;;5000142;28;20448;-64
2021/09/08 05:22:31;;;;;;;16.20;13.27;;;18.90;99.90;;;;;;4999047;28;20294;-64
2021/09/08 05:24:56;;;;;;;15.33;12.93;;;18.80;99.90;;;;;;4998608;28;20548;-64
2021/09/08 05:27:23;;;;;;;18.57;14.03;;;18.70;99.90;;;;;;5000963;28;20499;-64
2021/09/08 05:29:49;;;;;;;13.73;12.30;;;18.90;99.90;;;;;;4997431;28;21284;-64
2021/09/08 05:32:15;;;;;;;17.90;12.80;;;18.80;99.90;;;;;;4981627;28;20458;-64
2021/09/08 05:34:40;;;;;;;15.90;13.10;;;18.80;99.90;;;;;;5001958;28;20432;-64
2021/09/08 05:37:06;;;;;;;17.27;12.30;;;18.90;99.90;;;;;;5000490;28;20244;-64
2021/09/08 05:39:32;;;;;;;13.80;12.40;;;18.70;99.90;;;;;;5000155;28;20220;-64
2021/09/08 05:41:57;;;;;;;17.10;13.30;;;18.70;99.90;;;;;;4996990;28;20205;-64
2021/09/08 05:44:23;;;;;;;15.60;13.50;;;18.70;99.90;;;;;;5000160;28;20757;-64
2021/09/08 05:46:48;;;;;;;15.63;13.40;;;18.70;99.90;;;;;;4997181;28;20225;-64
2021/09/08 05:49:14;;;;;;;17.20;13.40;;;18.60;99.90;;;;;;5000919;28;20208;-64
2021/09/08 05:51:41;;;;;;;13.93;12.37;;;18.60;99.90;;;;;;4996522;28;20232;-64
2021/09/08 05:54:06;;;;;;;16.47;13.27;;;18.70;99.90;;;;;;4989897;28;20186;-64
2021/09/08 05:56:33;;;;;;;14.87;12.77;;;18.60;99.90;;;;;;4999299;28;20533;-64
2021/09/08 05:58:59;;;;;;;16.20;12.37;;;18.60;99.90;;;;;;4996133;28;20447;-64
2021/09/08 06:01:24;;;;;;;15.70;13.03;;;18.60;99.90;;;;;;4999352;28;20487;-64
2021/09/08 06:03:50;;;;;;;15.70;13.13;;;18.60;99.90;;;;;;4997747;28;20193;-63
2021/09/08 06:06:16;;;;;;;17.20;12.90;;;18.70;99.90;;;;;;4994533;28;20405;-63
2021/09/08 06:08:41;;;;;;;15.60;13.23;;;18.80;99.90;;;;;;4999103;28;20182;-64
2021/09/08 06:11:09;;;;;;;13.90;11.97;;;18.80;99.90;;;;;;4998401;28;20200;-64
2021/09/08 06:13:34;;;;;;;18.13;14.23;;;18.90;99.90;;;;;;4998284;28;20652;-64
2021/09/08 06:16:00;;;;;;;15.23;13.70;;;18.90;99.90;;;;;;5001769;28;20468;-63
2021/09/08 06:18:29;;;;;;;16.17;13.83;;;18.90;99.90;;;;;;4994831;28;20252;-64
2021/09/08 06:20:55;;;;;;;14.03;12.50;;;19.00;99.90;;;;;;4992621;28;20306;-62
2021/09/08 06:23:21;;;;;;;17.23;14.27;;;18.90;99.90;;;;;;4999227;28;20458;-62
2021/09/08 06:25:47;;;;;;;17.80;12.40;;;19.00;99.90;;;;;;4996756;28;20463;-63
2021/09/08 06:28:12;;;;;;;23.43;13.33;;;19.00;99.90;;;;;;4997275;28;20571;-62
2021/09/08 06:30:38;;;;;;;15.83;13.70;;;19.10;99.90;;;;;;4997568;28;20303;-63
2021/09/08 06:33:04;;;;;;;18.57;12.80;;;19.20;99.90;;;;;;5017091;28;20189;-63
2021/09/08 06:35:30;;;;;;;21.90;14.10;;;19.20;99.90;;;;;;5003690;28;20437;-63
2021/09/08 06:37:56;;;;;;;21.40;14.50;;;19.10;99.90;;;;;;5004879;28;20671;-63
2021/09/08 06:40:22;;;;;;;17.20;12.47;;;19.20;99.90;;;;;;5001699;28;20193;-64
2021/09/08 06:42:47;;;;;;;20.77;14.17;;;19.30;99.90;;;;;;4984381;28;20272;-68
2021/09/08 06:45:13;;;;;;;17.47;11.53;;;19.30;99.90;;;;;;5004382;28;21057;-68
2021/09/08 06:47:39;;;;;;;15.60;12.70;;;19.40;99.90;;;;;;5001951;28;20205;-68
2021/09/08 06:50:07;;;;;;;16.00;12.70;;;19.40;99.90;;;;;;5007577;28;20531;-67
2021/09/08 06:52:33;;;;;;;15.87;13.43;;;19.40;99.90;;;;;;4998592;28;20185;-67
2021/09/08 06:54:59;;;;;;;15.67;13.30;;;19.50;99.90;;;;;;5001832;28;22615;-67
2021/09/08 06:57:24;;;;;;;18.43;13.33;;;19.60;99.90;;;;;;5001578;28;20228;-68
2021/09/08 06:59:50;;;;;;;15.40;13.47;;;19.60;99.90;;;;;;4999979;28;20285;-67
2021/09/08 07:02:16;;;;;;;15.50;13.60;;;19.60;99.90;;;;;;5001595;28;20193;-67
2021/09/08 07:04:41;;;;;;;17.13;13.40;;;19.70;99.90;;;;;;5000084;28;20181;-67
2021/09/08 07:07:07;;;;;;;18.73;12.23;;;19.60;99.90;;;;;;5002969;28;20228;-67
2021/09/08 07:09:33;;;;;;;20.70;13.17;;;19.70;99.90;;;;;;4999178;28;20220;-67
2021/09/08 07:11:59;;;;;;;20.07;12.77;;;19.80;99.90;;;;;;5001764;28;20262;-67
2021/09/08 07:14:24;;;;;;;14.87;12.33;;;19.80;99.90;;;;;;5003856;28;20623;-67
2021/09/08 07:16:51;;;;;;;15.83;12.93;;;19.80;99.90;;;;;;5001495;28;20200;-68
2021/09/08 07:19:17;;;;;;;18.87;13.27;;;20.00;99.90;;;;;;4999303;28;20272;-67
2021/09/08 07:21:42;;;;;;;18.83;12.30;;;20.10;99.90;;;;;;4998291;28;20538;-68
2021/09/08 07:24:08;;;;;;;14.43;12.23;;;20.00;99.90;;;;;;5008882;28;20200;-68
2021/09/08 07:26:33;;;;;;;12.47;11.23;;;20.20;99.90;;;;;;5000977;28;20282;-68
2021/09/08 07:29:08;;;;;;;18.97;12.70;;;20.20;99.90;;;;;;5000271;28;20198;-66
2021/09/08 07:31:34;;;;;;;16.57;12.03;;;20.30;99.90;;;;;;4999664;28;20599;-68
2021/09/08 07:34:00;;;;;;;18.27;11.20;;;20.30;99.90;;;;;;4996620;28;20456;-67
2021/09/08 07:36:26;;;;;;;15.83;11.83;;;20.10;99.90;;;;;;4999335;28;20227;-68
2021/09/08 07:38:52;;;;;;;14.77;11.80;;;20.30;99.90;;;;;;5001456;28;20188;-68
2021/09/08 07:41:19;;;;;;;15.00;12.83;;;20.30;99.90;;;;;;5002888;28;20581;-68
2021/09/08 07:43:46;;;;;;;13.43;11.73;;;20.40;99.90;;;;;;4999580;28;20554;-69
2021/09/08 07:46:13;;;;;;;13.00;11.47;;;20.50;99.90;;;;;;5004589;28;20508;-67
2021/09/08 07:48:39;;;;;;;12.40;11.10;;;20.60;99.90;;;;;;5000551;28;20451;-68
2021/09/08 07:51:06;;;;;;;11.90;10.70;;;20.60;99.90;;;;;;5001105;28;20475;-68
2021/09/08 07:53:32;;;;;;;15.83;11.10;;;20.70;99.90;;;;;;5005094;28;20474;-68
2021/09/08 07:56:00;;;;;;;13.53;11.20;;;20.80;99.90;;;;;;5001321;28;20864;-68
2021/09/08 07:58:26;;;;;;;12.50;10.80;;;20.80;99.90;;;;;;4996282;28;20825;-68
2021/09/08 08:00:51;;;;;;;12.17;10.87;;;20.80;99.90;;;;;;4997493;28;20456;-68
2021/09/08 08:03:19;;;;;;;12.70;11.00;;;20.90;99.90;;;;;;5003286;28;20197;-68
2021/09/08 08:05:45;;;;;;;14.80;10.50;;;20.90;99.90;;;;;;4998333;28;20685;-68
2021/09/08 08:08:11;;;;;;;12.50;11.07;;;21.00;99.90;;;;;;4999758;28;20456;-68
2021/09/08 08:10:38;;;;;;;15.50;10.67;;;21.10;99.90;;;;;;4997244;28;20280;-69
2021/09/08 08:13:03;;;;;;;13.00;11.10;;;21.00;99.90;;;;;;5001801;28;20432;-68
2021/09/08 08:15:29;;;;;;;12.00;10.70;;;21.00;99.90;;;;;;5001379;28;20935;-68
2021/09/08 08:17:55;;;;;;;12.20;10.67;;;21.20;99.90;;;;;;4999137;28;20193;-68
2021/09/08 08:20:21;;;;;;;15.93;10.60;;;21.30;99.90;;;;;;5001983;28;20196;-68
2021/09/08 08:22:48;;;;;;;12.87;10.97;;;21.30;99.90;;;;;;4997459;28;20195;-68
2021/09/08 08:25:16;;;;;;;13.30;10.40;;;21.40;99.90;;;;;;4995405;28;20475;-68
2021/09/08 08:27:42;;;;;;;11.23;10.13;;;21.50;99.90;;;;;;4999015;28;20460;-68
2021/09/08 08:30:10;;;;;;;14.03;10.50;;;21.50;99.90;;;;;;4996141;28;20447;-68
2021/09/08 08:32:36;;;;;;;10.83;9.73;;;21.50;99.90;;;;;;4996807;28;21059;-68
2021/09/08 08:35:03;;;;;;;11.23;10.03;;;21.60;99.90;;;;;;4995125;28;21067;-68
2021/09/08 08:37:29;;;;;;;14.00;10.70;;;21.60;99.90;;;;;;4997024;28;20954;-68
2021/09/08 08:39:55;;;;;;;15.07;9.60;;;21.70;99.90;;;;;;4998406;28;20435;-68
2021/09/08 08:42:27;;;;;;;9.50;8.37;;;21.70;99.90;;;;;;4996605;28;21542;-68
2021/09/08 08:44:54;;;;;;;12.20;10.67;;;21.80;99.90;;;;;;4997201;28;20428;-68
2021/09/08 08:47:20;;;;;;;12.73;9.93;;;21.90;99.90;;;;;;4995781;28;20551;-68
2021/09/08 08:49:48;;;;;;;11.77;8.80;;;21.90;99.90;;;;;;5001520;28;20927;-67
2021/09/08 08:52:15;;;;;;;12.67;10.20;;;22.00;99.90;;;;;;4999906;28;20530;-68
2021/09/08 08:54:40;;;;;;;11.20;9.33;;;22.00;99.90;;;;;;4999537;28;20440;-68
2021/09/08 08:57:11;;;;;;;10.90;9.03;;;22.00;99.90;;;;;;4997697;28;20466;-68
2021/09/08 08:59:41;;;;;;;10.90;8.70;;;22.20;99.90;;;;;;4996317;28;20952;-68
2021/09/08 09:02:17;;;;;;;10.57;9.50;;;22.20;99.90;;;;;;4993706;28;20532;-68
2021/09/08 09:04:42;;;;;;;9.33;8.37;;;22.30;99.90;;;;;;4997575;28;20420;-68
2021/09/08 09:07:19;;;;;;;14.43;9.00;;;22.40;99.90;;;;;;4997240;28;20592;-68
2021/09/08 09:09:49;;;;;;;13.20;8.50;;;22.40;99.60;;;;;;4997238;28;20198;-67
2021/09/08 09:12:15;;;;;;;10.47;9.37;;;22.50;99.40;;;;;;4998438;28;20436;-67
2021/09/08 09:14:40;;;;;;;10.63;8.23;;;22.60;99.20;;;;;;4998501;28;20514;-68
2021/09/08 09:17:14;;;;;;;9.43;8.43;;;22.60;98.90;;;;;;5001643;28;20552;-67
2021/09/08 09:19:49;;;;;;;10.70;8.87;;;22.80;99.30;;;;;;4999130;28;20189;-67
2021/09/08 09:22:19;;;;;;;9.47;8.17;;;22.80;98.20;;;;;;5000563;28;20515;-67
2021/09/08 09:24:52;;;;;;;9.53;8.53;;;22.80;98.50;;;;;;4999305;28;20453;-67
2021/09/08 09:27:18;;;;;;;10.43;8.40;;;23.00;98.10;;;;;;5001630;28;21013;-66
2021/09/08 09:29:45;;;;;;;9.63;8.47;;;22.90;97.70;;;;;;5007120;28;20432;-67
2021/09/08 09:32:12;;;;;;;13.57;8.97;;;23.10;97.30;;;;;;5008602;28;20174;-67
2021/09/08 09:34:39;;;;;;;11.30;8.90;;;23.10;96.50;;;;;;5003617;28;20442;-67
2021/09/08 09:37:07;;;;;;;10.60;7.53;;;23.20;96.10;;;;;;5001664;28;20519;-67
2021/09/08 09:39:38;;;;;;;9.30;8.40;;;23.20;96.30;;;;;;5006447;28;20813;-67
2021/09/08 09:42:11;;;;;;;10.13;8.20;;;23.30;96.10;;;;;;5003124;28;20931;-67
2021/09/08 09:44:37;;;;;;;9.63;8.63;;;23.30;96.10;;;;;;5002723;28;20440;-66
2021/09/08 09:47:04;;;;;;;9.07;7.50;;;23.40;95.50;;;;;;5006440;28;21857;-67
2021/09/08 09:49:33;;;;;;;8.70;7.80;;;23.40;95.60;;;;;;5003838;28;20454;-67
2021/09/08 09:52:02;;;;;;;9.87;8.87;;;23.40;95.70;;;;;;5005540;28;20995;-66
2021/09/08 09:54:28;;;;;;;9.40;8.23;;;23.60;95.80;;;;;;5003014;28;21140;-66
2021/09/08 09:56:54;;;;;;;9.97;8.50;;;23.60;95.50;;;;;;4999786;28;20592;-67
2021/09/08 09:59:21;;;;;;;10.73;9.00;;;23.60;95.30;;;;;;5001419;28;20211;-67
2021/09/08 10:01:46;;;;;;;12.17;7.97;;;23.70;95.40;;;;;;5006572;28;20432;-67
2021/09/08 10:04:12;;;;;;;9.13;8.23;;;23.70;95.50;;;;;;5005719;28;20494;-67
2021/09/08 10:06:40;;;;;;;10.93;8.30;;;23.80;95.60;;;;;;4998778;28;20551;-66
2021/09/08 10:09:09;;;;;;;8.80;7.83;;;23.90;95.10;;;;;;4985512;28;20193;-66
2021/09/08 10:11:44;;;;;;;7.90;7.20;;;24.00;95.20;;;;;;5001571;28;20440;-67
2021/09/08 10:14:14;;;;;;;9.47;8.57;;;24.10;94.80;;;;;;5002907;28;20519;-66
2021/09/08 10:16:44;;;;;;;11.10;8.37;;;24.10;95.10;;;;;;5004603;28;20459;-67
2021/09/08 10:19:10;;;;;;;8.97;8.07;;;24.20;94.60;;;;;;5005450;28;20435;-67
2021/09/08 10:21:36;;;;;;;9.90;8.67;;;24.20;94.70;;;;;;5001511;28;20425;-66
2021/09/08 10:24:05;;;;;;;9.53;8.53;;;24.30;94.70;;;;;;5000577;28;20648;-67
2021/09/08 10:26:34;;;;;;;12.17;8.53;;;24.40;95.00;;;;;;5003576;28;20232;-67
2021/09/08 10:29:06;;;;;;;12.20;9.37;;;24.50;94.80;;;;;;5002967;28;20468;-67
2021/09/08 10:31:41;;;;;;;14.00;8.40;;;24.50;94.70;;;;;;5003379;28;20432;-67
2021/09/08 10:34:08;;;;;;;11.90;8.20;;;24.50;95.30;;;;;;5005385;28;20884;-67
2021/09/08 10:36:35;;;;;;;8.63;7.73;;;24.50;94.60;;;;;;4999999;28;20946;-67
2021/09/08 10:39:10;;;;;;;8.97;7.83;;;24.60;94.70;;;;;;5002190;28;20436;-67
2021/09/08 10:41:38;;;;;;;8.73;7.90;;;24.60;94.50;;;;;;5002362;28;20443;-67
2021/09/08 10:44:04;;;;;;;10.03;8.30;;;24.60;94.90;;;;;;5000735;28;20448;-67
2021/09/08 10:46:48;;;;;;;12.47;8.30;;;24.70;94.90;;;;;;5004661;28;20992;-66
2021/09/08 10:49:36;;;;;;;13.97;8.17;;;24.80;94.70;;;;;;4997952;28;20275;-66
2021/09/08 10:52:12;;;;;;;10.20;8.70;;;25.00;94.70;;;;;;5003048;28;20516;-67
2021/09/08 10:55:01;;;;;;;9.83;8.83;;;25.00;94.90;;;;;;5005336;28;20431;-66
2021/09/08 10:57:42;;;;;;;9.83;8.43;;;25.10;94.90;;;;;;4993881;28;20464;-67
2021/09/08 11:00:19;;;;;;;9.30;8.00;;;25.20;94.60;;;;;;5004290;28;20530;-66
2021/09/08 11:02:45;;;;;;;9.87;8.87;;;25.30;94.90;;;;;;5001940;28;20753;-67
2021/09/08 11:05:12;;;;;;;8.57;7.73;;;25.30;94.60;;;;;;5001795;28;20433;-67
2021/09/08 11:07:39;;;;;;;8.40;7.60;;;25.30;94.20;;;;;;5002860;28;20212;-67
2021/09/08 11:10:05;;;;;;;9.07;8.20;;;25.30;94.20;;;;;;5004905;28;20557;-67
2021/09/08 11:12:44;;;;;;;10.03;9.00;;;25.40;94.30;;;;;;5002253;28;20476;-68
2021/09/08 11:15:10;;;;;;;9.63;7.70;;;25.50;94.20;;;;;;5001718;28;21227;-67
2021/09/08 11:17:36;;;;;;;11.13;8.83;;;25.50;93.80;;;;;;5004612;28;20444;-66
2021/09/08 11:20:04;;;;;;;9.30;8.00;;;25.60;93.90;;;;;;5004738;28;20178;-66
2021/09/08 11:22:31;;;;;;;10.57;8.77;;;25.70;93.50;;;;;;5002529;28;20189;-66
2021/09/08 11:25:04;;;;;;;9.27;8.23;;;25.80;93.50;;;;;;5004940;28;20424;-68
2021/09/08 11:27:29;;;;;;;8.83;7.93;;;25.80;92.70;;;;;;4998009;28;20842;-66
2021/09/08 11:30:06;;;;;;;12.33;8.63;;;25.90;93.30;;;;;;5019173;28;20470;-67
2021/09/08 11:32:50;;;;;;;9.93;8.77;;;26.10;93.30;;;;;;4999658;28;20192;-68
2021/09/08 11:35:35;;;;;;;9.70;8.10;;;26.10;92.40;;;;;;5002710;28;20559;-68
2021/09/08 11:38:03;;;;;;;9.23;8.30;;;26.20;92.30;;;;;;5002386;28;20535;-68
2021/09/08 11:40:28;;;;;;;8.63;7.73;;;26.40;92.80;;;;;;5000540;28;20511;-67
2021/09/08 11:42:54;;;;;;;9.00;8.10;;;26.60;91.80;;;;;;5001764;28;20528;-68
2021/09/08 11:45:30;;;;;;;9.90;8.40;;;26.70;91.40;;;;;;5001215;28;20224;-68
2021/09/08 11:47:56;;;;;;;9.23;8.33;;;26.90;91.10;;;;;;5002176;28;20651;-67
2021/09/08 11:50:23;;;;;;;11.70;7.70;;;27.10;91.20;;;;;;5000194;28;20463;-68
2021/09/08 11:52:56;;;;;;;9.13;8.23;;;27.30;90.90;;;;;;4997705;28;20509;-68
2021/09/08 11:55:27;;;;;;;7.67;6.83;;;27.40;89.60;;;;;;5004306;28;20443;-67
2021/09/08 11:57:53;;;;;;;10.03;8.50;;;27.60;88.80;;;;;;5002031;28;20941;-68
2021/09/08 12:00:19;;;;;;;11.63;8.43;;;28.20;88.00;;;;;;5002703;28;20519;-68
2021/09/08 12:02:45;;;;;;;9.27;8.13;;;29.50;83.60;;;;;;4997763;28;20205;-68
2021/09/08 12:05:21;;;;;;;9.13;8.23;;;30.10;85.30;;;;;;4996271;28;20194;-68
2021/09/08 12:07:47;;;;;;;8.77;7.90;;;31.10;78.60;;;;;;5004550;28;20209;-68
2021/09/08 12:10:13;;;;;;;9.23;8.27;;;31.80;78.00;;;;;;5003359;28;20395;-67
2021/09/08 12:12:39;;;;;;;8.93;8.23;;;32.30;76.40;;;;;;5003945;28;20436;-67
2021/09/08 12:15:06;;;;;;;8.80;7.90;;;32.90;74.00;;;;;;4998227;28;20427;-67
2021/09/08 12:17:32;;;;;;;8.47;7.60;;;33.20;70.20;;;;;;5003413;28;20947;-67
2021/09/08 12:20:07;;;;;;;8.43;7.63;;;33.90;69.20;;;;;;5001534;28;20444;-67
2021/09/08 12:22:38;;;;;;;9.53;7.83;;;34.10;67.60;;;;;;5003387;28;20418;-69
2021/09/08 12:25:19;;;;;;;8.63;7.87;;;34.30;65.30;;;;;;5000255;28;20430;-67
2021/09/08 12:27:53;;;;;;;9.23;8.17;;;34.30;65.80;;;;;;4999159;28;20556;-67
2021/09/08 12:30:18;;;;;;;8.60;7.80;;;34.90;63.30;;;;;;4999529;28;20457;-67
2021/09/08 12:32:53;;;;;;;8.30;7.50;;;35.40;61.00;;;;;;5003977;28;20440;-67